createdAt,value
2022-12-23T00:00:27.563Z,100141.11
2022-12-23T00:03:14.362Z,100139.56
2022-12-23T00:05:41.149Z,100145.64
2022-12-23T00:08:08.336Z,100146.68
2022-12-23T00:10:39.135Z,100147.73
2022-12-23T00:13:25.322Z,100149.64
2022-12-23T00:16:07.849Z,100148.79
2022-12-23T00:18:34.877Z,100147.23
2022-12-23T00:21:09.183Z,100144.81
2022-12-23T00:23:38.375Z,100144.13
2022-12-23T00:26:06.233Z,100149.50
2022-12-23T00:28:33.087Z,100155.58
2022-12-23T00:31:04.318Z,100159.04
2022-12-23T00:33:43.041Z,100156.27
2022-12-23T00:36:20.119Z,100152.11
2022-12-23T00:39:06.546Z,100153.17
2022-12-23T00:41:52.314Z,100155.59
2022-12-23T00:44:19.479Z,100152.83
2022-12-23T00:46:46.195Z,100152.31
2022-12-23T00:49:33.215Z,100150.75
2022-12-23T00:52:00.695Z,100153.35
2022-12-23T00:54:27.409Z,100154.05
2022-12-23T00:56:54.048Z,100159.08
2022-12-23T00:59:20.916Z,100163.23
2022-12-23T01:02:05.958Z,100167.23
2022-12-23T01:04:51.436Z,100167.75
2022-12-23T01:07:18.072Z,100165.84
2022-12-23T01:09:44.922Z,100169.83
2022-12-23T01:12:11.651Z,100174.85
2022-12-23T01:14:38.645Z,100179.53
2022-12-23T01:17:07.215Z,100180.23
2022-12-23T01:19:34.016Z,100181.96
2022-12-23T01:22:00.617Z,100181.09
2022-12-23T01:24:29.155Z,100181.62
2022-12-23T01:26:56.317Z,100186.13
2022-12-23T01:29:23.401Z,100186.82
2022-12-23T01:31:50.110Z,100185.44
2022-12-23T01:34:17.109Z,100188.72
2022-12-23T01:36:43.788Z,100188.55
2022-12-23T01:39:10.445Z,100184.23
2022-12-23T01:41:55.557Z,100193.05
2022-12-23T01:44:50.367Z,100193.40
2022-12-23T01:47:55.715Z,100195.14
2022-12-23T01:50:22.545Z,100192.55
2022-12-23T01:53:13.038Z,100188.73
2022-12-23T01:56:02.035Z,100193.06
2022-12-23T01:58:34.522Z,100188.56
2022-12-23T02:01:19.733Z,100192.02
2022-12-23T02:03:49.313Z,100189.43
2022-12-23T02:06:45.283Z,100189.77
2022-12-23T02:09:21.377Z,100187.35
2022-12-23T02:12:20.939Z,100188.73
2022-12-23T02:15:33.862Z,100189.25
2022-12-23T02:18:11.919Z,100192.20
2022-12-23T02:21:15.783Z,100192.37
2022-12-23T02:24:05.052Z,100194.10
2022-12-23T02:26:59.748Z,100194.96
2022-12-23T02:29:26.307Z,100196.17
2022-12-23T02:31:57.828Z,100197.56
2022-12-23T02:34:35.903Z,100195.66
2022-12-23T02:37:21.409Z,100196.52
2022-12-23T02:40:09.244Z,100197.57
2022-12-23T02:42:50.127Z,100195.14
2022-12-23T02:45:30.349Z,100196.35
2022-12-23T02:48:16.261Z,100197.56
2022-12-23T02:50:46.538Z,100196.70
2022-12-23T02:53:24.584Z,100193.41
2022-12-23T02:55:55.517Z,100188.73
2022-12-23T02:58:27.592Z,100186.48
2022-12-23T03:00:56.275Z,100184.58
2022-12-23T03:03:24.381Z,100184.58
2022-12-23T03:05:53.470Z,100182.48
2022-12-23T03:08:31.702Z,100185.10
2022-12-23T03:11:04.388Z,100184.92
2022-12-23T03:14:00.713Z,100188.73
2022-12-23T03:16:38.875Z,100196.02
2022-12-23T03:19:31.922Z,100196.70
2022-12-23T03:22:06.819Z,100194.10
2022-12-23T03:25:21.338Z,100192.54
2022-12-23T03:28:17.329Z,100189.95
2022-12-23T03:30:50.515Z,100192.20
2022-12-23T03:33:26.528Z,100194.79
2022-12-23T03:36:00.856Z,100194.27
2022-12-23T03:38:30.096Z,100190.98
2022-12-23T03:41:05.047Z,100191.16
2022-12-23T03:43:48.383Z,100195.65
2022-12-23T03:46:30.318Z,100197.05
2022-12-23T03:49:01.595Z,100198.43
2022-12-23T03:51:36.221Z,100197.91
2022-12-23T03:54:09.609Z,100196.36
2022-12-23T03:56:41.952Z,100194.27
2022-12-23T03:59:16.635Z,100198.95
2022-12-23T04:02:02.043Z,100197.92
2022-12-23T04:04:43.723Z,100199.12
2022-12-23T04:07:16.871Z,100202.42
2022-12-23T04:09:44.259Z,100202.07
2022-12-23T04:12:13.585Z,100196.54
2022-12-23T04:14:47.333Z,100194.27
2022-12-23T04:17:15.100Z,100190.30
2022-12-23T04:19:44.793Z,100186.14
2022-12-23T04:22:16.041Z,100185.27
2022-12-23T04:24:43.894Z,100184.75
2022-12-23T04:27:13.556Z,100184.23
2022-12-23T04:29:40.357Z,100184.57
2022-12-23T04:32:08.224Z,100186.83
2022-12-23T04:34:35.482Z,100193.23
2022-12-23T04:37:02.317Z,100190.45
2022-12-23T04:39:29.049Z,100189.24
2022-12-23T04:41:55.685Z,100189.07
2022-12-23T04:44:22.305Z,100186.65
2022-12-23T04:46:49.017Z,100192.71
2022-12-23T04:49:15.699Z,100195.30
2022-12-23T04:51:42.375Z,100194.61
2022-12-23T04:54:09.073Z,100194.61
2022-12-23T04:56:35.722Z,100194.79
2022-12-23T04:59:03.653Z,100190.11
2022-12-23T05:01:30.504Z,100195.31
2022-12-23T05:03:57.261Z,100190.63
2022-12-23T05:06:23.999Z,100192.71
2022-12-23T05:08:50.635Z,100192.54
2022-12-23T05:11:17.270Z,100195.66
2022-12-23T05:13:44.011Z,100199.64
2022-12-23T05:16:10.671Z,100201.37
2022-12-23T05:18:37.305Z,100194.45
2022-12-23T05:21:04.436Z,100197.73
2022-12-23T05:23:31.188Z,100195.83
2022-12-23T05:25:57.810Z,100194.10
2022-12-23T05:28:24.496Z,100197.22
2022-12-23T05:31:02.980Z,100200.34
2022-12-23T05:33:30.395Z,100199.99
2022-12-23T05:35:58.075Z,100203.11
2022-12-23T05:38:24.843Z,100202.59
2022-12-23T05:40:52.068Z,100198.61
2022-12-23T05:43:18.910Z,100197.73
2022-12-23T05:45:46.437Z,100197.74
2022-12-23T05:48:13.125Z,100201.21
2022-12-23T05:50:40.355Z,100204.67
2022-12-23T05:53:07.787Z,100210.56
2022-12-23T05:55:35.308Z,100218.88
2022-12-23T05:58:02.464Z,100219.05
2022-12-23T06:00:29.158Z,100219.05
2022-12-23T06:02:56.025Z,100216.27
2022-12-23T06:05:22.737Z,100222.69
2022-12-23T06:07:49.481Z,100223.04
2022-12-23T06:10:16.358Z,100224.59
2022-12-23T06:12:43.030Z,100220.61
2022-12-23T06:15:10.310Z,100221.13
2022-12-23T06:17:37.075Z,100220.09
2022-12-23T06:20:04.571Z,100215.77
2022-12-23T06:22:31.189Z,100222.35
2022-12-23T06:24:57.890Z,100220.79
2022-12-23T06:27:24.509Z,100225.98
2022-12-23T06:29:51.092Z,100235.16
2022-12-23T06:32:17.717Z,100236.20
2022-12-23T06:34:44.475Z,100234.64
2022-12-23T06:37:11.170Z,100239.50
2022-12-23T06:39:37.829Z,100241.58
2022-12-23T06:42:04.537Z,100241.92
2022-12-23T06:44:31.206Z,100242.45
2022-12-23T06:46:57.915Z,100245.04
2022-12-23T06:49:24.562Z,100249.73
2022-12-23T06:51:51.190Z,100260.46
2022-12-23T06:54:17.848Z,100258.73
2022-12-23T06:56:44.388Z,100256.65
2022-12-23T06:59:11.109Z,100249.02
2022-12-23T07:01:38.155Z,100244.00
2022-12-23T07:04:05.002Z,100247.64
2022-12-23T07:06:31.730Z,100245.38
2022-12-23T07:08:58.411Z,100249.38
2022-12-23T07:11:25.103Z,100241.58
2022-12-23T07:13:51.753Z,100238.28
2022-12-23T07:16:18.373Z,100242.44
2022-12-23T07:18:45.220Z,100243.66
2022-12-23T07:21:21.256Z,100246.27
2022-12-23T07:23:54.267Z,100244.86
2022-12-23T07:26:20.897Z,100251.29
2022-12-23T07:28:48.454Z,100255.96
2022-12-23T07:31:15.459Z,100260.81
2022-12-23T07:33:42.350Z,100262.20
2022-12-23T07:36:09.731Z,100264.10
2022-12-23T07:38:36.417Z,100270.69
2022-12-23T07:41:03.279Z,100267.74
2022-12-23T07:43:29.969Z,100271.73
2022-12-23T07:46:00.429Z,100277.98
2022-12-23T07:48:27.811Z,100281.61
2022-12-23T07:51:02.964Z,100280.23
2022-12-23T07:53:30.091Z,100280.22
2022-12-23T07:55:57.121Z,100279.17
2022-12-23T07:58:24.781Z,100266.02
2022-12-23T08:00:58.304Z,100262.55
2022-12-23T08:03:25.074Z,100270.52
2022-12-23T08:06:06.448Z,100272.43
2022-12-23T08:08:34.373Z,100271.21
2022-12-23T08:11:03.730Z,100267.74
2022-12-23T08:13:31.949Z,100271.90
2022-12-23T08:16:00.214Z,100273.98
2022-12-23T08:18:29.333Z,100275.02
2022-12-23T08:20:58.260Z,100277.45
2022-12-23T08:23:26.518Z,100279.01
2022-12-23T08:26:08.428Z,100274.51
2022-12-23T08:28:36.669Z,100267.05
2022-12-23T08:31:08.405Z,100268.61
2022-12-23T08:33:37.644Z,100271.73
2022-12-23T08:36:06.205Z,100267.23
2022-12-23T08:38:34.171Z,100260.80
2022-12-23T08:41:00.996Z,100253.18
2022-12-23T08:43:35.229Z,100256.12
2022-12-23T08:46:03.340Z,100259.77
2022-12-23T08:48:30.689Z,100258.03
2022-12-23T08:51:01.859Z,100260.80
2022-12-23T08:53:28.689Z,100265.66
2022-12-23T08:55:55.364Z,100268.09
2022-12-23T08:58:22.105Z,100274.50
2022-12-23T09:00:48.870Z,100268.43
2022-12-23T09:03:15.490Z,100265.83
2022-12-23T09:05:42.422Z,100265.83
2022-12-23T09:08:09.145Z,100264.45
2022-12-23T09:10:43.632Z,100258.73
2022-12-23T09:13:16.248Z,100262.88
2022-12-23T09:15:46.708Z,100267.39
2022-12-23T09:18:13.350Z,100265.14
2022-12-23T09:20:40.080Z,100271.73
2022-12-23T09:23:07.105Z,100264.45
2022-12-23T09:25:35.870Z,100254.74
2022-12-23T09:28:03.758Z,100257.69
2022-12-23T09:30:30.379Z,100253.70
2022-12-23T09:32:56.976Z,100253.18
2022-12-23T09:35:23.552Z,100251.97
2022-12-23T09:37:50.214Z,100250.92
2022-12-23T09:40:20.711Z,100250.58
2022-12-23T09:43:21.571Z,100245.55
2022-12-23T09:46:13.792Z,100248.33
2022-12-23T09:48:47.969Z,100247.47
2022-12-23T09:51:18.957Z,100244.00
2022-12-23T09:54:06.166Z,100232.73
2022-12-23T09:56:54.862Z,100240.52
2022-12-23T09:59:41.124Z,100243.48
2022-12-23T10:02:07.878Z,100246.77
2022-12-23T10:05:05.948Z,100247.29
2022-12-23T10:07:43.100Z,100246.25
2022-12-23T10:10:38.922Z,100241.23
2022-12-23T10:13:10.321Z,100245.55
2022-12-23T10:15:42.527Z,100243.83
2022-12-23T10:18:34.903Z,100239.48
2022-12-23T10:21:06.975Z,100233.23
2022-12-23T10:23:39.230Z,100222.67
2022-12-23T10:26:45.807Z,100219.03
2022-12-23T10:29:41.394Z,100216.27
2022-12-23T10:32:14.030Z,100216.78
2022-12-23T10:34:46.678Z,100215.56
2022-12-23T10:37:22.329Z,100213.65
2022-12-23T10:40:13.907Z,100213.98
2022-12-23T10:42:52.267Z,100209.48
2022-12-23T10:45:46.128Z,100205.32
2022-12-23T10:48:24.694Z,100204.98
2022-12-23T10:51:21.339Z,100210.18
2022-12-23T10:53:54.861Z,100216.27
2022-12-23T10:56:22.108Z,100223.02
2022-12-23T10:58:54.309Z,100221.27
2022-12-23T11:01:27.141Z,100220.23
2022-12-23T11:04:03.257Z,100219.19
2022-12-23T11:06:37.519Z,100216.23
2022-12-23T11:09:06.695Z,100216.23
2022-12-23T11:12:04.663Z,100218.48
2022-12-23T11:14:57.605Z,100221.08
2022-12-23T11:17:30.385Z,100214.84
2022-12-23T11:20:17.215Z,100216.39
2022-12-23T11:22:48.973Z,100217.26
2022-12-23T11:25:36.933Z,100221.25
2022-12-23T11:28:15.303Z,100225.94
2022-12-23T11:30:56.571Z,100219.34
2022-12-23T11:33:33.670Z,100221.76
2022-12-23T11:36:12.577Z,100219.51
2022-12-23T11:38:48.801Z,100220.02
2022-12-23T11:41:41.963Z,100215.88
2022-12-23T11:44:18.372Z,100219.34
2022-12-23T11:46:45.076Z,100217.95
2022-12-23T11:49:19.209Z,100212.39
2022-12-23T11:51:58.289Z,100218.11
2022-12-23T11:54:25.068Z,100217.76
2022-12-23T11:56:53.579Z,100217.58
2022-12-23T11:59:41.707Z,100220.85
2022-12-23T12:02:17.883Z,100216.34
2022-12-23T12:05:01.797Z,100217.02
2022-12-23T12:07:30.222Z,100219.46
2022-12-23T12:09:59.534Z,100218.24
2022-12-23T12:12:28.764Z,100218.23
2022-12-23T12:14:58.723Z,100218.58
2022-12-23T12:17:28.052Z,100220.14
2022-12-23T12:20:19.406Z,100218.91
2022-12-23T12:22:55.872Z,100215.09
2022-12-23T12:25:37.868Z,100212.31
2022-12-23T12:28:11.922Z,100207.98
2022-12-23T12:30:46.347Z,100209.90
2022-12-23T12:33:22.765Z,100214.75
2022-12-23T12:36:01.728Z,100214.23
2022-12-23T12:38:33.369Z,100217.88
2022-12-23T12:41:27.702Z,100215.45
2022-12-23T12:44:15.453Z,100214.94
2022-12-23T12:46:52.224Z,100215.63
2022-12-23T12:49:21.709Z,100219.45
2022-12-23T12:51:56.780Z,100218.57
2022-12-23T12:54:50.301Z,100215.45
2022-12-23T12:57:19.675Z,100212.86
2022-12-23T12:59:50.342Z,100208.54
2022-12-23T13:02:38.792Z,100212.02
2022-12-23T13:05:08.660Z,100215.14
2022-12-23T13:07:56.933Z,100211.15
2022-12-23T13:10:42.720Z,100209.77
2022-12-23T13:13:16.332Z,100212.89
2022-12-23T13:16:02.311Z,100212.20
2022-12-23T13:18:55.923Z,100214.97
2022-12-23T13:21:35.308Z,100208.72
2022-12-23T13:24:32.150Z,100209.58
2022-12-23T13:27:38.327Z,100209.08
2022-12-23T13:30:08.488Z,100211.17
2022-12-23T13:32:56.413Z,100212.55
2022-12-23T13:35:36.850Z,100215.17
2022-12-23T13:38:21.847Z,100215.87
2022-12-23T13:41:10.296Z,100219.70
2022-12-23T13:43:47.064Z,100225.94
2022-12-23T13:46:55.386Z,100219.35
2022-12-23T13:49:22.132Z,100219.36
2022-12-23T13:52:11.498Z,100220.39
2022-12-23T13:55:02.040Z,100222.29
2022-12-23T13:57:53.409Z,100219.69
2022-12-23T14:00:20.037Z,100225.23
2022-12-23T14:02:52.810Z,100222.63
2022-12-23T14:05:40.348Z,100224.19
2022-12-23T14:08:23.981Z,100233.55
2022-12-23T14:10:52.868Z,100224.01
2022-12-23T14:13:24.475Z,100227.13
2022-12-23T14:16:03.831Z,100226.42
2022-12-23T14:18:37.661Z,100232.66
2022-12-23T14:21:29.388Z,100233.89
2022-12-23T14:24:23.775Z,100236.33
2022-12-23T14:26:56.553Z,100237.55
2022-12-23T14:30:01.512Z,100237.03
2022-12-23T14:32:48.819Z,100238.09
2022-12-23T14:35:47.909Z,100239.64
2022-12-23T14:38:14.923Z,100238.42
2022-12-23T14:40:41.951Z,100239.30
2022-12-23T14:43:30.447Z,100232.70
2022-12-23T14:46:04.343Z,100233.05
2022-12-23T14:48:33.876Z,100233.77
2022-12-23T14:51:22.413Z,100235.48
2022-12-23T14:53:51.833Z,100236.02
2022-12-23T14:56:18.418Z,100240.52
2022-12-23T14:58:51.552Z,100236.02
2022-12-23T15:01:37.989Z,100243.83
2022-12-23T15:04:26.809Z,100249.72
2022-12-23T15:07:05.973Z,100255.09
2022-12-23T15:09:58.684Z,100253.02
2022-12-23T15:12:34.850Z,100257.86
2022-12-23T15:15:05.634Z,100257.17
2022-12-23T15:17:36.509Z,100267.05
2022-12-23T15:20:23.622Z,100260.81
2022-12-23T15:22:51.585Z,100259.25
2022-12-23T15:25:31.737Z,100251.27
2022-12-23T15:28:02.087Z,100250.41
2022-12-23T15:30:34.463Z,100259.42
2022-12-23T15:33:27.727Z,100255.96
2022-12-23T15:35:53.942Z,100255.77
2022-12-23T15:38:24.751Z,100254.05
2022-12-23T15:41:03.781Z,100255.44
2022-12-23T15:43:30.887Z,100259.77
2022-12-23T15:46:30.157Z,100259.42
2022-12-23T15:48:57.828Z,100254.75
2022-12-23T15:52:05.886Z,100253.35
2022-12-23T15:54:33.155Z,100251.63
2022-12-23T15:57:02.563Z,100245.91
2022-12-23T15:59:39.034Z,100246.95
2022-12-23T16:02:49.584Z,100257.34
2022-12-23T16:05:05.184Z,100264.98
2022-12-23T16:07:40.121Z,100260.47
2022-12-23T16:10:21.176Z,100255.09
2022-12-23T16:12:51.989Z,100262.20
2022-12-23T16:15:27.901Z,100264.11
2022-12-23T16:18:22.350Z,100264.80
2022-12-23T16:20:51.010Z,100268.27
2022-12-23T16:23:17.741Z,100273.81
2022-12-23T16:25:51.068Z,100275.20
2022-12-23T16:28:26.302Z,100275.89
2022-12-23T16:30:55.885Z,100276.58
2022-12-23T16:33:40.704Z,100277.79
2022-12-23T16:36:16.316Z,100277.61
2022-12-23T16:38:43.885Z,100275.02
2022-12-23T16:41:10.751Z,100270.86
2022-12-23T16:43:37.363Z,100273.97
2022-12-23T16:46:04.959Z,100272.23
2022-12-23T16:48:36.230Z,100273.61
2022-12-23T16:51:06.793Z,100277.77
2022-12-23T16:53:33.845Z,100278.64
2022-12-23T16:56:01.400Z,100283.15
2022-12-23T16:58:28.936Z,100285.23
2022-12-23T17:00:56.159Z,100290.25
2022-12-23T17:03:22.953Z,100296.49
2022-12-23T17:05:49.639Z,100293.20
2022-12-23T17:08:16.322Z,100296.84
2022-12-23T17:10:46.541Z,100295.80
2022-12-23T17:13:17.280Z,100295.64
2022-12-23T17:15:44.714Z,100302.04
2022-12-23T17:18:18.125Z,100302.73
2022-12-23T17:20:46.816Z,100304.30
2022-12-23T17:23:29.321Z,100304.82
2022-12-23T17:25:56.265Z,100300.14
2022-12-23T17:28:28.512Z,100301.35
2022-12-23T17:30:55.998Z,100300.14
2022-12-23T17:33:26.121Z,100302.73
2022-12-23T17:35:53.056Z,100302.05
2022-12-23T17:38:19.685Z,100303.09
2022-12-23T17:40:47.565Z,100303.96
2022-12-23T17:43:17.059Z,100305.00
2022-12-23T17:45:46.445Z,100311.77
2022-12-23T17:48:19.780Z,100304.65
2022-12-23T17:50:48.377Z,100299.27
2022-12-23T17:53:19.155Z,100299.29
2022-12-23T17:55:46.244Z,100290.09
2022-12-23T17:58:13.639Z,100286.45
2022-12-23T18:00:40.924Z,100293.57
2022-12-23T18:03:22.114Z,100295.64
2022-12-23T18:05:49.348Z,100298.76
2022-12-23T18:08:16.496Z,100303.61
2022-12-23T18:10:43.871Z,100308.12
2022-12-23T18:13:17.922Z,100311.41
2022-12-23T18:15:45.072Z,100313.83
2022-12-23T18:18:13.190Z,100312.62
2022-12-23T18:20:42.459Z,100308.98
2022-12-23T18:23:20.923Z,100308.46
2022-12-23T18:25:47.637Z,100314.70
2022-12-23T18:28:14.297Z,100315.55
2022-12-23T18:30:41.095Z,100317.98
2022-12-23T18:33:12.155Z,100321.63
2022-12-23T18:35:43.517Z,100329.59
2022-12-23T18:38:10.876Z,100329.07
2022-12-23T18:40:39.044Z,100335.99
2022-12-23T18:43:06.505Z,100335.81
2022-12-23T18:45:47.829Z,100341.17
2022-12-23T18:48:19.221Z,100343.92
2022-12-23T18:50:46.140Z,100345.30
2022-12-23T18:53:23.851Z,100342.53
2022-12-23T18:55:52.849Z,100350.14
2022-12-23T18:58:19.906Z,100359.66
2022-12-23T19:00:48.288Z,100367.47
2022-12-23T19:03:29.343Z,100373.36
2022-12-23T19:05:57.924Z,100371.80
2022-12-23T19:08:27.047Z,100378.21
2022-12-23T19:10:55.005Z,100382.55
2022-12-23T19:13:21.891Z,100386.20
2022-12-23T19:15:48.876Z,100388.10
2022-12-23T19:18:18.438Z,100392.61
2022-12-23T19:20:46.458Z,100393.66
2022-12-23T19:23:13.782Z,100393.48
2022-12-23T19:25:43.497Z,100396.43
2022-12-23T19:28:11.890Z,100397.98
2022-12-23T19:30:41.601Z,100397.75
2022-12-23T19:33:08.596Z,100398.67
2022-12-23T19:35:36.108Z,100398.37
2022-12-23T19:38:02.847Z,100400.98
2022-12-23T19:40:30.202Z,100403.23
2022-12-23T19:42:56.853Z,100406.70
2022-12-23T19:45:23.483Z,100400.65
2022-12-23T19:47:50.142Z,100398.76
2022-12-23T19:50:18.432Z,100400.48
2022-12-23T19:52:45.196Z,100399.27
2022-12-23T19:55:12.585Z,100402.73
2022-12-23T19:57:39.581Z,100405.14
2022-12-23T20:00:07.307Z,100410.67
2022-12-23T20:02:38.658Z,100409.60
2022-12-23T20:05:05.852Z,100409.08
2022-12-23T20:07:34.907Z,100416.34
2022-12-23T20:10:01.914Z,100415.46
2022-12-23T20:12:28.565Z,100418.06
2022-12-23T20:14:55.292Z,100418.58
2022-12-23T20:17:21.935Z,100422.56
2022-12-23T20:19:48.571Z,100424.64
2022-12-23T20:22:15.244Z,100422.73
2022-12-23T20:24:41.855Z,100421.00
2022-12-23T20:27:11.900Z,100425.83
2022-12-23T20:29:39.237Z,100423.20
2022-12-23T20:32:06.063Z,100425.61
2022-12-23T20:34:38.767Z,100427.31
2022-12-23T20:37:07.131Z,100428.83
2022-12-23T20:39:34.628Z,100432.77
2022-12-23T20:42:01.417Z,100434.47
2022-12-23T20:44:36.956Z,100434.45
2022-12-23T20:47:07.281Z,100436.16
2022-12-23T20:49:33.980Z,100442.55
2022-12-23T20:52:01.069Z,100441.84
2022-12-23T20:54:32.853Z,100445.82
2022-12-23T20:57:01.394Z,100447.89
2022-12-23T20:59:28.155Z,100444.26
2022-12-23T21:01:55.142Z,100446.50
2022-12-23T21:04:22.026Z,100452.35
2022-12-23T21:06:48.902Z,100449.56
2022-12-23T21:09:15.777Z,100455.75
2022-12-23T21:11:44.856Z,100453.14
2022-12-23T21:14:12.370Z,100456.57
2022-12-23T21:16:40.370Z,100454.48
2022-12-23T21:19:08.789Z,100457.04
2022-12-23T21:21:35.704Z,100455.11
2022-12-23T21:24:03.575Z,100454.21
2022-12-23T21:26:32.209Z,100457.80
2022-12-23T21:29:00.678Z,100460.52
2022-12-23T21:31:29.137Z,100462.02
2022-12-23T21:33:56.629Z,100465.95
2022-12-23T21:36:27.238Z,100472.12
2022-12-23T21:38:54.451Z,100477.60
2022-12-23T21:41:24.678Z,100483.59
2022-12-23T21:43:51.804Z,100483.36
2022-12-23T21:46:20.400Z,100491.93
2022-12-23T21:48:48.746Z,100490.64
2022-12-23T21:51:23.953Z,100492.15
2022-12-23T21:53:52.764Z,100497.27
2022-12-23T21:56:26.253Z,100502.08
2022-12-23T21:58:58.104Z,100500.98
2022-12-23T22:01:26.247Z,100500.42
2022-12-23T22:03:54.256Z,100501.23
2022-12-23T22:06:33.074Z,100505.02
2022-12-23T22:08:59.764Z,100503.73
2022-12-23T22:11:29.171Z,100501.79
2022-12-23T22:13:58.166Z,100502.09
2022-12-23T22:16:28.165Z,100505.84
2022-12-23T22:18:56.398Z,100504.55
2022-12-23T22:21:25.491Z,100509.17
2022-12-23T22:23:53.687Z,100514.79
2022-12-23T22:26:25.752Z,100520.04
2022-12-23T22:28:58.494Z,100523.41
2022-12-23T22:31:43.383Z,100523.48
2022-12-23T22:34:14.517Z,100525.77
2022-12-23T22:36:41.306Z,100527.52
2022-12-23T22:39:08.350Z,100536.91
2022-12-23T22:41:35.035Z,100538.52
2022-12-23T22:44:01.722Z,100542.04
2022-12-23T22:46:28.805Z,100546.25
2022-12-23T22:48:56.522Z,100546.85
2022-12-23T22:51:26.293Z,100550.92
2022-12-23T22:53:54.087Z,100551.38
2022-12-23T22:56:22.490Z,100549.43
2022-12-23T22:58:50.357Z,100548.68
2022-12-23T23:01:25.922Z,100544.83
2022-12-23T23:03:56.679Z,100544.91
2022-12-23T23:06:31.823Z,100543.91
2022-12-23T23:08:59.069Z,100541.03
2022-12-23T23:11:26.991Z,100537.46
2022-12-23T23:13:53.908Z,100543.05
2022-12-23T23:16:21.486Z,100548.31
2022-12-23T23:18:48.517Z,100550.99
2022-12-23T23:21:15.836Z,100552.09
2022-12-23T23:23:43.095Z,100548.70
2022-12-23T23:26:10.496Z,100549.80
2022-12-23T23:28:38.921Z,100554.38
2022-12-23T23:31:39.665Z,100552.06
2022-12-23T23:33:53.613Z,100555.73
2022-12-23T23:36:20.393Z,100557.72
2022-12-23T23:38:47.081Z,100560.11
2022-12-23T23:41:17.423Z,100561.64
2022-12-23T23:43:49.051Z,100559.36
2022-12-23T23:46:15.777Z,100563.52
2022-12-23T23:48:42.427Z,100564.58
2022-12-23T23:51:09.073Z,100569.92
2022-12-23T23:53:35.698Z,100571.16
2022-12-23T23:56:05.143Z,100568.75
2022-12-23T23:58:32.465Z,100570.04
